createdAt,value
2019-06-10T19:20:32.930Z,3.27
2019-06-10T19:22:56.981Z,3.23
2019-06-10T19:25:23.917Z,3.37
2019-06-10T19:27:53.013Z,3.30
2019-06-10T19:30:17.754Z,3.30
2019-06-10T19:32:44.610Z,3.50
2019-06-10T19:35:13.142Z,3.30
2019-06-10T19:37:39.378Z,3.20
2019-06-10T19:42:44.757Z,3.50
2019-06-10T19:45:12.345Z,3.20
2019-06-10T19:47:38.002Z,3.40
2019-06-10T19:50:03.682Z,3.53
2019-06-10T19:52:32.514Z,3.27
2019-06-10T19:54:57.456Z,3.43
2019-06-10T19:57:24.373Z,3.40
2019-06-10T20:00:07.399Z,3.17
2019-06-10T20:02:18.164Z,3.70
2019-06-10T20:04:45.644Z,3.03
2019-06-10T20:07:12.849Z,3.17
2019-06-10T20:09:42.059Z,2.70
2019-06-10T20:12:06.128Z,2.70
2019-06-10T20:14:34.308Z,3.23
2019-06-10T20:16:59.916Z,2.87
2019-06-10T20:19:26.912Z,2.90
2019-06-10T20:21:53.737Z,2.27
2019-06-10T20:24:22.303Z,2.33
2019-06-10T20:26:48.086Z,2.30
2019-06-10T20:29:14.534Z,2.67
2019-06-10T20:31:45.126Z,2.90
2019-06-10T20:34:08.525Z,2.77
2019-06-10T20:36:35.213Z,2.60
2019-06-10T20:39:02.301Z,2.70
2019-06-10T20:41:29.154Z,2.90
2019-06-10T20:43:56.013Z,3.03
2019-06-10T20:46:23.517Z,2.20
2019-06-10T20:48:51.927Z,2.70
2019-06-10T20:51:16.822Z,2.20
2019-06-10T20:53:45.901Z,1.87
2019-06-10T20:56:12.457Z,2.20
2019-06-10T20:58:38.699Z,2.37
2019-06-10T21:01:04.961Z,1.87
2019-06-10T21:06:08.675Z,3.10
2019-06-10T21:08:35.596Z,2.30
2019-06-10T21:11:03.156Z,2.60
2019-06-10T21:13:29.489Z,1.90
2019-06-10T21:15:59.137Z,2.37
2019-06-10T21:18:23.299Z,2.67
2019-06-10T21:20:55.996Z,3.00
2019-06-10T21:23:17.179Z,2.30
2019-06-10T21:25:46.138Z,1.90
2019-06-10T21:28:12.985Z,2.50
2019-06-10T21:30:41.906Z,2.57
2019-06-10T21:33:04.765Z,2.20
2019-06-10T21:35:31.664Z,2.60
2019-06-10T21:37:58.628Z,2.30
2019-06-10T21:40:25.516Z,2.47
2019-06-10T21:42:53.748Z,2.17
2019-06-10T21:45:19.323Z,2.00
2019-06-10T21:47:48.886Z,1.97
2019-06-10T21:50:15.031Z,2.63
2019-06-10T21:52:44.098Z,2.43
2019-06-10T21:55:08.876Z,2.10
2019-06-10T21:57:35.740Z,2.27
2019-06-10T22:02:40.120Z,2.47
2019-06-10T22:05:07.024Z,2.10
2019-06-10T22:07:33.930Z,2.80
2019-06-10T22:10:02.586Z,2.10
2019-06-10T22:12:28.112Z,2.53
2019-06-10T22:14:55.027Z,2.40
2019-06-10T22:17:21.917Z,2.20
2019-06-10T22:19:48.818Z,2.30
2019-06-10T22:22:15.782Z,2.50
2019-06-10T22:24:42.623Z,2.53
2019-06-10T22:27:09.525Z,2.20
2019-06-10T22:29:36.421Z,2.17
2019-06-10T22:32:03.303Z,2.30
2019-06-10T22:34:30.242Z,2.73
2019-06-10T22:36:57.665Z,2.53
2019-06-10T22:39:23.983Z,2.33
2019-06-10T22:41:53.678Z,2.40
2019-06-10T22:44:17.814Z,2.30
2019-06-10T22:46:44.718Z,2.17
2019-06-10T22:49:13.428Z,2.53
2019-06-10T22:51:38.617Z,2.50
2019-06-10T22:54:05.448Z,2.47
2019-06-10T22:56:32.389Z,2.20
2019-06-10T22:59:00.380Z,2.33
2019-06-10T23:01:33.870Z,2.43
2019-06-10T23:03:54.169Z,2.03
2019-06-10T23:06:19.950Z,2.50
2019-06-10T23:08:48.028Z,2.40
2019-06-10T23:11:13.824Z,2.27
2019-06-10T23:13:42.418Z,2.43
2019-06-10T23:16:07.619Z,2.40
2019-06-10T23:18:34.646Z,2.17
2019-06-10T23:21:04.078Z,2.20
2019-06-10T23:23:28.430Z,2.60
2019-06-10T23:25:55.974Z,2.60
2019-06-10T23:31:00.516Z,2.53
2019-06-10T23:33:26.572Z,2.20
2019-06-10T23:35:54.500Z,2.10
2019-06-10T23:38:20.471Z,2.27
2019-06-10T23:40:47.460Z,2.37
2019-06-10T23:43:14.346Z,2.30
2019-06-10T23:45:42.196Z,2.30
2019-06-10T23:48:08.226Z,2.57
2019-06-10T23:50:35.186Z,3.13
2019-06-10T23:53:07.268Z,2.80
2019-06-10T23:55:28.938Z,2.63
2019-06-10T23:57:56.258Z,2.43
